Time;durP1;ratioP1;P1;durP2;ratioP2;P2;SDS_P1;SDS_P2;PMS_P1;PMS_P2;Temp;Humidity;BMP_temperature;BMP_pressure;BME280_temperature;BME280_humidity;BME280_pressure;Samples;Min_cycle;Max_cycle;Signal;HPM_P1;HPM_P2
2023/03/30 00:01:10;;;;;;;2.33;2.13;;;22.80;53.20;;;;;;5025967;28;20449;-75
2023/03/30 00:03:39;;;;;;;2.20;2.00;;;22.80;53.10;;;;;;5025138;28;20441;-75
2023/03/30 00:06:07;;;;;;;2.67;2.40;;;22.80;53.20;;;;;;5024667;28;20539;-75
2023/03/30 00:08:36;;;;;;;2.33;2.10;;;22.80;53.20;;;;;;5025758;28;20481;-75
2023/03/30 00:11:07;;;;;;;1.87;1.77;;;22.80;53.20;;;;;;5026372;28;20503;-77
2023/03/30 00:13:37;;;;;;;3.00;2.00;;;22.80;53.20;;;;;;5023735;28;20445;-76
2023/03/30 00:16:08;;;;;;;2.27;2.07;;;22.80;53.20;;;;;;5024607;28;20547;-75
2023/03/30 00:18:38;;;;;;;2.17;1.90;;;22.80;53.20;;;;;;5028461;28;20448;-75
2023/03/30 00:21:08;;;;;;;2.90;2.50;;;22.80;53.20;;;;;;5023858;28;20550;-76
2023/03/30 00:23:36;;;;;;;2.10;2.00;;;22.80;53.20;;;;;;5024609;28;20448;-75
2023/03/30 00:26:06;;;;;;;2.20;1.60;;;22.80;53.20;;;;;;5018828;28;20977;-76
2023/03/30 00:28:35;;;;;;;3.37;2.70;;;22.80;53.20;;;;;;5025028;28;20456;-75
2023/03/30 00:31:03;;;;;;;3.40;1.80;;;22.80;53.20;;;;;;5006555;28;20471;-76
2023/03/30 00:33:32;;;;;;;2.27;2.10;;;22.80;53.20;;;;;;5024770;28;20440;-74
2023/03/30 00:36:13;;;;;;;2.07;1.87;;;22.70;53.30;;;;;;5003573;28;20456;-75
2023/03/30 00:38:41;;;;;;;3.43;2.70;;;22.70;53.30;;;;;;5010815;28;20530;-75
2023/03/30 00:41:10;;;;;;;3.60;2.10;;;22.70;53.30;;;;;;5004411;28;20555;-75
2023/03/30 00:44:00;;;;;;;1.73;1.63;;;22.70;53.30;;;;;;5005804;28;20480;-76
2023/03/30 00:46:30;;;;;;;1.57;1.47;;;22.70;53.30;;;;;;5024208;28;20460;-74
2023/03/30 00:49:02;;;;;;;2.70;2.23;;;22.70;53.30;;;;;;5021583;28;20542;-75
2023/03/30 00:51:34;;;;;;;2.60;2.00;;;22.70;53.30;;;;;;5003278;28;20496;-74
2023/03/30 00:54:09;;;;;;;2.10;1.70;;;22.70;53.30;;;;;;5004803;28;20515;-75
2023/03/30 00:56:37;;;;;;;2.33;2.13;;;22.70;53.30;;;;;;5021150;28;20453;-77
2023/03/30 00:59:07;;;;;;;2.77;2.40;;;22.80;53.30;;;;;;5020673;28;20528;-76
2023/03/30 01:01:37;;;;;;;4.50;3.03;;;22.80;53.40;;;;;;5025384;28;21022;-78
2023/03/30 01:04:08;;;;;;;2.33;2.13;;;22.80;53.30;;;;;;5022336;28;21108;-75
2023/03/30 01:06:39;;;;;;;2.50;1.90;;;22.80;53.40;;;;;;5009295;28;20472;-75
2023/03/30 01:09:08;;;;;;;2.30;2.10;;;22.80;53.30;;;;;;5012638;28;20474;-74
2023/03/30 01:11:36;;;;;;;2.13;1.93;;;22.80;53.30;;;;;;5020836;28;20465;-75
2023/03/30 01:14:08;;;;;;;2.47;1.90;;;22.80;53.20;;;;;;5021566;28;20534;-75
2023/03/30 01:16:43;;;;;;;2.20;2.00;;;22.80;53.20;;;;;;5007454;28;20512;-78
2023/03/30 01:19:51;;;;;;;1.60;1.50;;;22.80;53.20;;;;;;5022162;28;20448;-75
2023/03/30 01:22:41;;;;;;;3.60;1.90;;;22.80;53.20;;;;;;5022539;28;20527;-74
2023/03/30 01:25:37;;;;;;;1.60;1.43;;;22.80;53.20;;;;;;5006164;28;20541;-78
2023/03/30 01:28:24;;;;;;;1.90;1.80;;;22.80;53.30;;;;;;5022985;28;20491;-78
2023/03/30 01:31:32;;;;;;;6.50;1.70;;;22.80;53.30;;;;;;5023893;28;20483;-75
2023/03/30 01:34:32;;;;;;;2.47;2.10;;;22.80;53.30;;;;;;4994368;28;20457;-75
2023/03/30 01:37:34;;;;;;;1.60;1.50;;;22.70;53.30;;;;;;5005131;28;20523;-75
2023/03/30 01:40:11;;;;;;;1.97;1.63;;;22.70;53.30;;;;;;5001092;28;20810;-75
2023/03/30 01:42:48;;;;;;;2.60;1.70;;;22.70;53.40;;;;;;5023933;28;20443;-75
2023/03/30 01:45:27;;;;;;;2.20;2.00;;;22.70;53.40;;;;;;5022545;28;20450;-75
2023/03/30 01:47:58;;;;;;;3.70;2.13;;;22.70;53.40;;;;;;5023335;28;20491;-75
2023/03/30 01:50:33;;;;;;;3.43;1.83;;;22.70;53.40;;;;;;5003888;28;20476;-75
2023/03/30 01:53:06;;;;;;;2.70;2.50;;;22.70;53.40;;;;;;5024806;28;20954;-74
2023/03/30 01:55:41;;;;;;;1.90;1.70;;;22.70;53.40;;;;;;5005144;28;20456;-74
2023/03/30 01:58:16;;;;;;;3.77;2.07;;;22.70;53.40;;;;;;5012741;28;20462;-74
2023/03/30 02:00:49;;;;;;;1.47;1.37;;;22.70;53.40;;;;;;5004913;28;20464;-75
2023/03/30 02:03:22;;;;;;;2.17;1.90;;;22.70;53.40;;;;;;5000793;28;20486;-75
2023/03/30 02:05:55;;;;;;;3.53;2.23;;;22.70;53.40;;;;;;5023382;28;20448;-74
2023/03/30 02:08:27;;;;;;;1.87;1.77;;;22.70;53.40;;;;;;5022704;28;20526;-75
2023/03/30 02:10:58;;;;;;;2.03;1.57;;;22.70;53.40;;;;;;5023385;28;20518;-78
2023/03/30 02:13:28;;;;;;;1.83;1.60;;;22.70;53.40;;;;;;5024271;28;20799;-75
2023/03/30 02:15:59;;;;;;;1.57;1.40;;;22.70;53.50;;;;;;5022232;28;20580;-75
2023/03/30 02:18:27;;;;;;;1.70;1.50;;;22.70;53.50;;;;;;5022462;28;20457;-75
2023/03/30 02:20:57;;;;;;;2.50;1.90;;;22.70;53.50;;;;;;5006434;28;20554;-75
2023/03/30 02:23:32;;;;;;;1.50;1.30;;;22.70;53.50;;;;;;5023602;28;20531;-79
2023/03/30 02:26:03;;;;;;;2.07;1.60;;;22.70;53.50;;;;;;5024072;28;20534;-74
2023/03/30 02:28:31;;;;;;;2.30;1.47;;;22.70;53.60;;;;;;5023102;28;20603;-75
2023/03/30 02:31:01;;;;;;;2.37;2.17;;;22.80;53.50;;;;;;5022853;28;20555;-75
2023/03/30 02:33:41;;;;;;;2.67;1.60;;;22.80;53.50;;;;;;5020579;28;20447;-76
2023/03/30 02:36:28;;;;;;;2.93;1.83;;;22.80;53.40;;;;;;5004512;28;20516;-75
2023/03/30 02:39:09;;;;;;;2.13;1.67;;;22.80;53.40;;;;;;5008673;28;20467;-75
2023/03/30 02:42:04;;;;;;;1.90;1.57;;;22.80;53.40;;;;;;5002564;28;20468;-75
2023/03/30 02:44:39;;;;;;;2.80;1.80;;;22.80;53.40;;;;;;5006061;28;20451;-74
2023/03/30 02:47:13;;;;;;;3.03;1.80;;;22.80;53.40;;;;;;5009897;28;20463;-75
2023/03/30 02:49:58;;;;;;;4.13;1.60;;;22.80;53.40;;;;;;5006899;28;20460;-75
2023/03/30 02:52:41;;;;;;;1.73;1.63;;;22.80;53.40;;;;;;4999779;28;20495;-75
2023/03/30 02:55:18;;;;;;;3.17;2.00;;;22.70;53.40;;;;;;4999782;28;20552;-75
2023/03/30 02:58:34;;;;;;;2.70;1.63;;;22.70;53.40;;;;;;4995905;28;20463;-75
2023/03/30 03:01:14;;;;;;;6.00;2.00;;;22.70;53.50;;;;;;5002525;28;20489;-76
2023/03/30 03:03:57;;;;;;;6.97;2.00;;;22.70;53.50;;;;;;4999880;28;20481;-76
2023/03/30 03:06:31;;;;;;;1.40;1.30;;;22.70;53.50;;;;;;4996801;28;20463;-75
2023/03/30 03:08:59;;;;;;;1.70;1.60;;;22.70;53.50;;;;;;4997238;28;20862;-75
2023/03/30 03:11:32;;;;;;;1.80;1.70;;;22.70;53.60;;;;;;5002447;28;20480;-74
2023/03/30 03:14:02;;;;;;;3.40;2.03;;;22.70;53.60;;;;;;4999071;28;20496;-74
2023/03/30 03:16:33;;;;;;;2.50;1.50;;;22.60;53.70;;;;;;5000037;28;20546;-75
2023/03/30 03:19:14;;;;;;;1.40;1.30;;;22.60;53.70;;;;;;5002130;28;20529;-78
2023/03/30 03:21:44;;;;;;;3.63;1.57;;;22.60;53.70;;;;;;5003218;28;20476;-77
2023/03/30 03:24:16;;;;;;;3.60;2.20;;;22.60;53.80;;;;;;5003676;28;20963;-76
2023/03/30 03:27:22;;;;;;;3.00;1.87;;;22.60;53.90;;;;;;4994716;28;20937;-75
2023/03/30 03:30:05;;;;;;;3.30;1.90;;;22.60;54.00;;;;;;5001850;28;20550;-74
2023/03/30 03:32:41;;;;;;;2.33;1.60;;;22.60;54.10;;;;;;5002732;28;20460;-75
2023/03/30 03:35:09;;;;;;;1.70;1.53;;;22.60;54.00;;;;;;5002480;28;20457;-74
2023/03/30 03:37:38;;;;;;;2.67;1.60;;;22.60;53.90;;;;;;5003855;28;20465;-76
2023/03/30 03:40:08;;;;;;;2.13;1.90;;;22.60;53.80;;;;;;4998074;28;20481;-75
2023/03/30 03:42:36;;;;;;;3.53;1.60;;;22.60;53.80;;;;;;5000075;28;20471;-78
2023/03/30 03:45:14;;;;;;;1.87;1.77;;;22.70;53.80;;;;;;5001729;28;20475;-75
2023/03/30 03:47:53;;;;;;;2.80;1.83;;;22.70;53.80;;;;;;5000764;28;20468;-76
2023/03/30 03:50:42;;;;;;;2.47;1.37;;;22.70;53.70;;;;;;5004465;28;20477;-74
2023/03/30 03:53:12;;;;;;;3.10;1.63;;;22.70;53.70;;;;;;5025011;28;20484;-75
2023/03/30 03:55:40;;;;;;;2.20;1.43;;;22.70;53.70;;;;;;5005536;28;20539;-75
2023/03/30 03:58:09;;;;;;;2.90;1.43;;;22.70;53.70;;;;;;5025973;28;20849;-75
2023/03/30 04:00:38;;;;;;;2.90;1.40;;;22.70;53.70;;;;;;5004533;28;20893;-76
2023/03/30 04:03:07;;;;;;;2.30;1.70;;;22.70;53.70;;;;;;5028293;28;20969;-77
2023/03/30 04:05:36;;;;;;;3.40;1.40;;;22.70;53.70;;;;;;5029702;28;20550;-78
2023/03/30 04:08:09;;;;;;;2.00;1.40;;;22.70;53.70;;;;;;5011985;28;20458;-75
2023/03/30 04:10:38;;;;;;;1.83;1.40;;;22.70;53.80;;;;;;5012306;28;20474;-76
2023/03/30 04:13:17;;;;;;;2.40;2.10;;;22.60;53.80;;;;;;5016202;28;20816;-81
2023/03/30 04:15:56;;;;;;;3.40;2.50;;;22.60;53.80;;;;;;5028354;28;20471;-74
2023/03/30 04:18:32;;;;;;;1.73;1.47;;;22.60;53.80;;;;;;5030187;28;20548;-75
2023/03/30 04:21:11;;;;;;;4.13;1.57;;;22.60;53.80;;;;;;5029832;28;20529;-77
2023/03/30 04:24:11;;;;;;;3.73;1.93;;;22.60;53.90;;;;;;5015714;28;20676;-75
2023/03/30 04:26:48;;;;;;;4.03;2.33;;;22.60;54.00;;;;;;5029504;28;20901;-74
2023/03/30 04:29:31;;;;;;;5.20;1.50;;;22.60;54.00;;;;;;5013748;28;20464;-76
2023/03/30 04:32:02;;;;;;;2.00;1.40;;;22.60;54.00;;;;;;5021522;28;20484;-75
2023/03/30 04:34:47;;;;;;;1.40;1.30;;;22.60;53.90;;;;;;5007506;28;20517;-76
2023/03/30 04:37:41;;;;;;;2.00;1.50;;;22.60;53.90;;;;;;5017960;28;21021;-75
2023/03/30 04:40:35;;;;;;;1.37;1.10;;;22.60;54.00;;;;;;5008601;28;20495;-74
2023/03/30 04:43:22;;;;;;;1.53;1.43;;;22.70;54.00;;;;;;5010041;28;21023;-75
2023/03/30 04:46:22;;;;;;;1.67;1.57;;;22.70;53.90;;;;;;5000356;28;20459;-74
2023/03/30 04:49:12;;;;;;;3.03;1.70;;;22.70;54.00;;;;;;5022307;28;21764;-76
2023/03/30 04:52:03;;;;;;;1.53;1.43;;;22.70;54.00;;;;;;5024838;28;20491;-74
2023/03/30 04:54:38;;;;;;;3.90;1.80;;;22.80;54.10;;;;;;5023861;28;20451;-76
2023/03/30 04:57:07;;;;;;;3.10;1.50;;;22.80;54.10;;;;;;5027435;28;20466;-77
2023/03/30 04:59:44;;;;;;;3.60;1.60;;;22.80;54.00;;;;;;5024599;28;20451;-74
2023/03/30 05:02:32;;;;;;;3.17;1.73;;;22.80;54.00;;;;;;5021079;28;20471;-77
2023/03/30 05:05:21;;;;;;;1.50;1.40;;;22.80;54.00;;;;;;5026060;28;20447;-76
2023/03/30 05:08:07;;;;;;;3.00;1.70;;;22.80;54.00;;;;;;5020677;28;20460;-75
2023/03/30 05:11:01;;;;;;;3.90;1.60;;;22.80;54.00;;;;;;5021435;28;20452;-75
2023/03/30 05:13:53;;;;;;;1.80;1.40;;;22.80;54.00;;;;;;5014756;28;20484;-75
2023/03/30 05:16:27;;;;;;;5.97;2.27;;;22.80;54.00;;;;;;5023148;28;20460;-76
2023/03/30 05:19:14;;;;;;;1.30;1.20;;;22.80;54.00;;;;;;5004410;28;20982;-76
2023/03/30 05:22:03;;;;;;;1.93;1.37;;;22.80;54.10;;;;;;5022146;28;20544;-74
2023/03/30 05:24:54;;;;;;;3.60;1.80;;;22.70;54.10;;;;;;5023342;28;20469;-74
2023/03/30 05:27:41;;;;;;;1.37;1.23;;;22.70;54.20;;;;;;5024723;28;20447;-76
2023/03/30 05:30:39;;;;;;;1.60;1.50;;;22.70;54.20;;;;;;5005813;28;20461;-74
2023/03/30 05:33:26;;;;;;;1.30;1.20;;;22.70;54.20;;;;;;5021630;28;20492;-75
2023/03/30 05:36:17;;;;;;;1.63;1.40;;;22.60;54.30;;;;;;5022616;28;21438;-76
2023/03/30 05:39:03;;;;;;;1.40;1.20;;;22.60;54.30;;;;;;5013261;28;20832;-75
2023/03/30 05:41:49;;;;;;;1.37;1.27;;;22.60;54.30;;;;;;5001532;28;20994;-76
2023/03/30 05:44:40;;;;;;;2.30;1.67;;;22.60;54.30;;;;;;5009792;28;20463;-75
2023/03/30 05:47:37;;;;;;;1.63;1.53;;;22.60;54.30;;;;;;5024207;28;20845;-75
2023/03/30 05:50:32;;;;;;;2.40;1.40;;;22.60;54.40;;;;;;5020627;28;20459;-75
2023/03/30 05:53:04;;;;;;;2.43;1.90;;;22.60;54.50;;;;;;5006242;28;20497;-78
2023/03/30 05:55:33;;;;;;;1.93;1.70;;;22.60;54.50;;;;;;5020620;28;20459;-74
2023/03/30 05:58:30;;;;;;;6.43;1.73;;;22.60;54.50;;;;;;4952891;28;20458;-75
2023/03/30 06:01:20;;;;;;;3.47;1.83;;;22.60;54.50;;;;;;5023459;28;20463;-75
2023/03/30 06:03:49;;;;;;;2.37;1.70;;;22.60;54.60;;;;;;5006955;28;20511;-75
2023/03/30 06:06:18;;;;;;;2.43;1.20;;;22.60;54.60;;;;;;5002001;28;20982;-78
2023/03/30 06:08:50;;;;;;;2.80;1.60;;;22.60;54.50;;;;;;5003202;28;20472;-80
2023/03/30 06:11:22;;;;;;;1.83;1.23;;;22.60;54.40;;;;;;5002657;28;20491;-75
2023/03/30 06:14:02;;;;;;;2.50;1.40;;;22.60;54.40;;;;;;5005018;28;20951;-75
2023/03/30 06:16:31;;;;;;;2.10;1.80;;;22.60;54.40;;;;;;5002945;28;20468;-76
2023/03/30 06:19:00;;;;;;;2.33;1.77;;;22.70;54.40;;;;;;5002044;28;20951;-79
2023/03/30 06:21:29;;;;;;;3.63;1.77;;;22.70;54.40;;;;;;5022960;28;20802;-75
2023/03/30 06:24:24;;;;;;;2.73;1.70;;;22.70;54.40;;;;;;5006455;28;20525;-75
2023/03/30 06:26:54;;;;;;;2.97;1.57;;;22.70;54.40;;;;;;5005129;28;20463;-75
2023/03/30 06:29:23;;;;;;;3.90;1.40;;;22.70;54.40;;;;;;4996924;28;20454;-75
2023/03/30 06:31:52;;;;;;;1.77;1.50;;;22.70;54.40;;;;;;5005421;28;20505;-77
2023/03/30 06:34:38;;;;;;;2.03;1.40;;;22.70;54.40;;;;;;5016183;28;20941;-75
2023/03/30 06:37:08;;;;;;;4.20;1.50;;;22.70;54.30;;;;;;5003665;28;20453;-76
2023/03/30 06:39:36;;;;;;;2.40;2.20;;;22.70;54.40;;;;;;4995920;28;20904;-75
2023/03/30 06:42:07;;;;;;;3.50;1.63;;;22.70;54.30;;;;;;5006945;28;20447;-75
2023/03/30 06:45:02;;;;;;;2.87;1.47;;;22.70;54.30;;;;;;5011522;28;20453;-76
2023/03/30 06:47:31;;;;;;;4.10;2.00;;;22.70;54.40;;;;;;5005089;28;20957;-75
2023/03/30 06:50:00;;;;;;;3.13;1.27;;;22.70;54.30;;;;;;4996177;28;20473;-75
2023/03/30 06:53:00;;;;;;;2.40;1.53;;;22.70;54.40;;;;;;5006719;28;20495;-76
2023/03/30 06:55:35;;;;;;;1.20;1.10;;;22.70;54.40;;;;;;5003607;28;21034;-75
2023/03/30 06:58:05;;;;;;;1.30;1.20;;;22.70;54.40;;;;;;5006241;28;20622;-82
2023/03/30 07:00:33;;;;;;;2.03;1.83;;;22.70;54.40;;;;;;5004918;28;20464;-77
2023/03/30 07:03:28;;;;;;;1.40;1.00;;;22.70;54.40;;;;;;5012149;28;20464;-75
2023/03/30 07:06:11;;;;;;;2.30;1.30;;;22.70;54.40;;;;;;5004072;28;20456;-76
2023/03/30 07:08:40;;;;;;;1.27;1.20;;;22.60;54.40;;;;;;4996520;28;20459;-75
2023/03/30 07:11:11;;;;;;;2.87;1.30;;;22.70;54.40;;;;;;5003117;28;20467;-76
2023/03/30 07:13:41;;;;;;;1.70;1.60;;;22.60;54.40;;;;;;5006005;28;20486;-75
2023/03/30 07:16:10;;;;;;;1.90;1.37;;;22.60;54.40;;;;;;5015056;28;20510;-75
2023/03/30 07:18:38;;;;;;;1.97;1.47;;;22.60;54.40;;;;;;4996067;28;20460;-76
2023/03/30 07:21:07;;;;;;;2.10;1.43;;;22.70;54.40;;;;;;5015064;28;20572;-79
2023/03/30 07:23:40;;;;;;;1.73;1.10;;;22.60;54.40;;;;;;4997001;28;20450;-77
2023/03/30 07:26:11;;;;;;;2.60;1.50;;;22.60;54.50;;;;;;5006813;28;20457;-75
2023/03/30 07:28:50;;;;;;;4.53;1.73;;;22.60;54.50;;;;;;5002355;28;20542;-75
2023/03/30 07:31:20;;;;;;;1.00;0.90;;;22.60;54.50;;;;;;5000904;28;20569;-75
2023/03/30 07:33:49;;;;;;;1.70;1.40;;;22.70;54.50;;;;;;5008944;28;20480;-75
2023/03/30 07:36:23;;;;;;;1.90;1.20;;;22.60;54.50;;;;;;4998921;28;20456;-75
2023/03/30 07:38:52;;;;;;;1.73;1.43;;;22.70;54.40;;;;;;5011471;28;20959;-75
2023/03/30 07:41:20;;;;;;;2.10;1.40;;;22.70;54.50;;;;;;4999758;28;20464;-75
2023/03/30 07:43:54;;;;;;;2.13;1.70;;;22.70;54.40;;;;;;5002128;28;20463;-76
2023/03/30 07:46:22;;;;;;;2.77;1.50;;;22.70;54.40;;;;;;4999089;28;20468;-76
2023/03/30 07:48:54;;;;;;;3.73;1.77;;;22.70;54.40;;;;;;5000808;28;20473;-78
2023/03/30 07:51:23;;;;;;;3.53;1.73;;;22.70;54.40;;;;;;5021369;28;20487;-76
2023/03/30 07:54:03;;;;;;;2.40;1.50;;;22.70;54.40;;;;;;5011415;28;20555;-75
2023/03/30 07:56:51;;;;;;;2.80;1.50;;;22.70;54.40;;;;;;5008665;28;20474;-76
2023/03/30 07:59:22;;;;;;;1.30;1.20;;;22.70;54.40;;;;;;5008461;28;20467;-76
2023/03/30 08:01:53;;;;;;;4.83;1.60;;;22.80;54.30;;;;;;5009298;28;20460;-75
2023/03/30 08:04:42;;;;;;;1.50;1.40;;;22.80;54.30;;;;;;5010702;28;20461;-75
2023/03/30 08:07:13;;;;;;;6.13;1.90;;;22.80;54.30;;;;;;5006044;28;20497;-75
2023/03/30 08:09:41;;;;;;;1.80;1.27;;;22.80;54.30;;;;;;5019425;28;20452;-77
2023/03/30 08:12:09;;;;;;;1.60;1.40;;;22.80;54.20;;;;;;5019123;28;20457;-80
2023/03/30 08:14:41;;;;;;;1.77;1.60;;;22.80;54.20;;;;;;5000163;28;20547;-75
2023/03/30 08:17:09;;;;;;;1.70;1.23;;;22.80;54.20;;;;;;5017017;28;20970;-75
2023/03/30 08:19:37;;;;;;;3.07;1.80;;;22.80;54.20;;;;;;5021472;28;20477;-75
2023/03/30 08:22:05;;;;;;;2.37;1.70;;;22.80;54.20;;;;;;5018919;28;20567;-76
2023/03/30 08:24:34;;;;;;;1.67;1.10;;;22.80;54.20;;;;;;5017179;28;20456;-78
2023/03/30 08:27:02;;;;;;;1.70;1.37;;;22.80;54.20;;;;;;5021073;28;20454;-75
2023/03/30 08:29:30;;;;;;;2.87;1.33;;;22.80;54.20;;;;;;5023169;28;20509;-75
2023/03/30 08:32:00;;;;;;;2.10;1.63;;;22.80;54.20;;;;;;5014847;28;20949;-81
2023/03/30 08:34:29;;;;;;;2.00;1.40;;;22.80;54.20;;;;;;5021044;28;20491;-76
2023/03/30 08:36:57;;;;;;;2.30;1.80;;;22.80;54.30;;;;;;5019444;28;20848;-75
2023/03/30 08:39:25;;;;;;;1.20;1.10;;;22.80;54.30;;;;;;5025048;28;20980;-75
2023/03/30 08:42:16;;;;;;;2.00;1.47;;;22.80;54.20;;;;;;5020421;28;20464;-76
2023/03/30 08:44:47;;;;;;;1.60;1.27;;;22.80;54.30;;;;;;5018575;28;20452;-78
2023/03/30 08:47:20;;;;;;;1.60;1.20;;;22.80;54.30;;;;;;5020548;28;20494;-76
2023/03/30 08:49:59;;;;;;;1.70;1.60;;;22.80;54.30;;;;;;5024859;28;20453;-76
2023/03/30 08:52:27;;;;;;;1.80;1.37;;;22.80;54.30;;;;;;5026321;28;20495;-75
2023/03/30 08:54:56;;;;;;;1.70;1.17;;;22.70;54.30;;;;;;5025802;28;20960;-75
2023/03/30 08:57:37;;;;;;;2.20;1.60;;;22.70;54.30;;;;;;5024407;28;20459;-75
2023/03/30 09:00:18;;;;;;;1.60;1.50;;;22.70;54.40;;;;;;4999745;28;20879;-76
2023/03/30 09:02:51;;;;;;;2.30;1.67;;;22.70;54.40;;;;;;5020138;28;20444;-76
2023/03/30 09:05:26;;;;;;;1.60;1.50;;;22.70;54.40;;;;;;5023026;28;21206;-75
2023/03/30 09:08:01;;;;;;;1.60;1.50;;;22.80;54.40;;;;;;5023009;28;20454;-76
2023/03/30 09:10:36;;;;;;;2.70;2.50;;;22.80;54.40;;;;;;5025136;28;20466;-75
2023/03/30 09:13:06;;;;;;;1.93;1.70;;;22.80;54.40;;;;;;5022601;28;20480;-78
2023/03/30 09:15:39;;;;;;;2.93;1.83;;;22.80;54.40;;;;;;5019937;28;20556;-77
2023/03/30 09:18:17;;;;;;;1.90;1.03;;;22.80;54.40;;;;;;5022583;28;20908;-77
2023/03/30 09:20:47;;;;;;;3.50;1.73;;;22.80;54.40;;;;;;5020011;28;20455;-77
2023/03/30 09:23:17;;;;;;;3.70;1.37;;;22.80;54.40;;;;;;5020977;28;20527;-75
2023/03/30 09:25:52;;;;;;;2.03;1.60;;;22.80;54.30;;;;;;5018907;28;20963;-78
2023/03/30 09:28:27;;;;;;;2.17;1.63;;;22.80;54.30;;;;;;5021411;28;20453;-75
2023/03/30 09:31:01;;;;;;;2.17;1.60;;;22.90;54.30;;;;;;5023702;28;20491;-77
2023/03/30 09:33:42;;;;;;;2.70;1.43;;;22.90;54.30;;;;;;5023874;28;20463;-76
2023/03/30 09:36:15;;;;;;;2.90;1.70;;;22.90;54.30;;;;;;5020320;28;20528;-76
2023/03/30 09:38:44;;;;;;;3.40;1.60;;;22.90;54.30;;;;;;5027467;28;20456;-75
2023/03/30 09:41:32;;;;;;;2.80;2.10;;;22.90;54.20;;;;;;5023445;28;20492;-78
2023/03/30 09:44:02;;;;;;;2.10;1.40;;;22.90;54.30;;;;;;5021499;28;20453;-77
2023/03/30 09:46:31;;;;;;;2.27;1.77;;;22.90;54.30;;;;;;5017304;28;20496;-75
2023/03/30 09:49:15;;;;;;;4.60;1.87;;;22.90;54.30;;;;;;5024375;28;20825;-78
2023/03/30 09:51:55;;;;;;;2.97;1.50;;;22.90;54.30;;;;;;5022961;28;20492;-75
2023/03/30 09:54:23;;;;;;;3.03;1.97;;;22.90;54.30;;;;;;5021206;28;20942;-73
2023/03/30 09:56:55;;;;;;;3.50;1.80;;;22.90;54.40;;;;;;5003684;28;20467;-74
2023/03/30 09:59:31;;;;;;;2.63;1.50;;;22.90;54.40;;;;;;5025515;28;20895;-74
2023/03/30 10:02:20;;;;;;;3.70;1.37;;;22.90;54.40;;;;;;5019948;28;20519;-77
2023/03/30 10:05:02;;;;;;;3.90;2.00;;;22.80;54.50;;;;;;5021001;28;20483;-80
2023/03/30 10:07:33;;;;;;;1.90;1.70;;;22.80;54.50;;;;;;5023256;28;20459;-73
2023/03/30 10:10:13;;;;;;;4.13;2.27;;;22.80;54.60;;;;;;5024199;28;20493;-75
2023/03/30 10:12:41;;;;;;;3.97;1.63;;;22.80;54.60;;;;;;5021133;28;20460;-77
2023/03/30 10:15:16;;;;;;;5.80;2.27;;;22.90;55.30;;;;;;5020577;28;21051;-73
2023/03/30 10:17:46;;;;;;;2.73;2.07;;;22.90;55.60;;;;;;5019865;28;20443;-73
2023/03/30 10:20:24;;;;;;;5.10;2.03;;;22.90;55.80;;;;;;5023687;28;20456;-78
2023/03/30 10:22:54;;;;;;;4.30;2.20;;;22.90;56.00;;;;;;5021121;28;20484;-77
2023/03/30 10:25:26;;;;;;;3.50;2.20;;;22.90;55.90;;;;;;5017413;28;20487;-74
2023/03/30 10:27:57;;;;;;;3.10;1.77;;;22.90;55.90;;;;;;5019133;28;20460;-75
2023/03/30 10:30:28;;;;;;;2.50;2.27;;;22.90;55.90;;;;;;5018569;28;20457;-73
2023/03/30 10:32:58;;;;;;;2.90;1.97;;;22.90;55.90;;;;;;5003714;28;20452;-74
2023/03/30 10:35:35;;;;;;;3.70;2.00;;;22.90;55.90;;;;;;5018185;28;20478;-73
2023/03/30 10:38:06;;;;;;;3.17;2.28;;;22.90;56.00;;;;;;5022764;28;20856;-76
2023/03/30 10:40:36;;;;;;;3.30;2.30;;;22.90;56.00;;;;;;5020391;28;20456;-74
2023/03/30 10:43:12;;;;;;;3.57;2.00;;;22.90;55.90;;;;;;5022506;28;20451;-72
2023/03/30 10:45:45;;;;;;;3.93;2.00;;;22.90;55.70;;;;;;5022634;28;20509;-73
2023/03/30 10:48:35;;;;;;;1.97;1.70;;;22.90;55.70;;;;;;5023624;28;21118;-78
2023/03/30 10:51:14;;;;;;;2.97;2.10;;;22.90;55.60;;;;;;5004072;28;20484;-73
2023/03/30 10:53:50;;;;;;;2.50;1.90;;;22.90;55.70;;;;;;5023489;28;20547;-74
2023/03/30 10:56:30;;;;;;;4.17;1.80;;;22.90;55.70;;;;;;5020083;28;20475;-73
2023/03/30 10:59:26;;;;;;;2.23;2.03;;;22.90;55.70;;;;;;5002404;28;20877;-73
2023/03/30 11:02:13;;;;;;;3.33;1.80;;;22.90;55.70;;;;;;5023375;28;20871;-73
2023/03/30 11:04:46;;;;;;;2.00;1.50;;;22.90;55.70;;;;;;5023936;28;21300;-76
2023/03/30 11:07:28;;;;;;;2.80;2.30;;;22.90;55.60;;;;;;5027792;28;20466;-74
2023/03/30 11:10:02;;;;;;;2.60;1.67;;;22.90;55.70;;;;;;5007266;28;20550;-74
2023/03/30 11:12:36;;;;;;;3.90;2.00;;;22.90;55.70;;;;;;5021875;28;20452;-77
2023/03/30 11:15:08;;;;;;;3.57;2.17;;;22.80;55.70;;;;;;5021270;28;20479;-73
2023/03/30 11:17:47;;;;;;;3.80;1.90;;;22.80;55.70;;;;;;5022133;28;20574;-75
2023/03/30 11:20:22;;;;;;;4.40;2.00;;;22.80;55.80;;;;;;5020769;28;21453;-75
2023/03/30 11:22:58;;;;;;;3.53;1.87;;;22.80;55.70;;;;;;5020681;28;20463;-74
2023/03/30 11:25:32;;;;;;;2.60;1.80;;;22.90;56.00;;;;;;5025530;28;20478;-73
2023/03/30 11:28:11;;;;;;;4.67;2.60;;;22.90;56.20;;;;;;5023314;28;20458;-72
2023/03/30 11:30:40;;;;;;;6.47;1.90;;;22.90;56.10;;;;;;5021005;28;20461;-76
2023/03/30 11:33:19;;;;;;;2.13;1.90;;;23.00;56.10;;;;;;5026412;28;20449;-78
2023/03/30 11:35:50;;;;;;;3.83;1.90;;;23.10;56.10;;;;;;5025918;28;20500;-74
2023/03/30 11:38:25;;;;;;;4.40;1.83;;;23.10;56.00;;;;;;5024737;28;20460;-74
2023/03/30 11:40:58;;;;;;;4.87;2.27;;;23.20;56.00;;;;;;5022576;28;20462;-76
2023/03/30 11:43:30;;;;;;;3.80;2.07;;;23.20;55.90;;;;;;5025951;28;20455;-73
2023/03/30 11:46:03;;;;;;;3.03;1.50;;;23.20;55.90;;;;;;5026117;28;20460;-73
2023/03/30 11:48:59;;;;;;;4.47;1.90;;;23.30;55.90;;;;;;5019280;28;20473;-72
2023/03/30 11:51:53;;;;;;;4.30;2.10;;;23.30;55.80;;;;;;5019927;28;20514;-72
2023/03/30 11:54:45;;;;;;;4.23;1.90;;;23.30;55.60;;;;;;5023670;28;20992;-72
2023/03/30 11:57:36;;;;;;;3.53;2.20;;;23.30;55.60;;;;;;5023939;28;20444;-72
2023/03/30 12:00:26;;;;;;;5.73;2.80;;;23.40;55.60;;;;;;5025980;28;20597;-73
2023/03/30 12:03:06;;;;;;;4.67;1.73;;;23.40;55.70;;;;;;5023352;28;20528;-75
2023/03/30 12:05:38;;;;;;;1.73;1.50;;;23.40;55.60;;;;;;5021051;28;20452;-73
2023/03/30 12:08:20;;;;;;;1.97;1.70;;;23.40;55.70;;;;;;5022395;28;20453;-73
2023/03/30 12:10:56;;;;;;;4.80;1.73;;;23.40;55.80;;;;;;5025751;28;20544;-73
2023/03/30 12:13:26;;;;;;;2.23;1.83;;;23.40;55.70;;;;;;5025007;28;21005;-74
2023/03/30 12:16:03;;;;;;;4.50;2.07;;;23.40;55.80;;;;;;5022773;28;21096;-73
2023/03/30 12:18:39;;;;;;;2.40;1.73;;;23.50;55.80;;;;;;5026022;28;20462;-72
2023/03/30 12:21:26;;;;;;;2.47;1.30;;;23.50;55.80;;;;;;5024278;28;20454;-72
2023/03/30 12:24:00;;;;;;;5.30;2.07;;;23.50;55.80;;;;;;5019617;28;20907;-74
2023/03/30 12:26:32;;;;;;;6.40;2.27;;;23.50;55.90;;;;;;5022124;28;20483;-73
2023/03/30 12:29:11;;;;;;;3.20;1.93;;;23.50;55.90;;;;;;5023223;28;20452;-73
2023/03/30 12:32:07;;;;;;;3.03;1.60;;;23.50;56.00;;;;;;5025945;28;20487;-74
2023/03/30 12:34:40;;;;;;;3.50;1.67;;;23.50;55.90;;;;;;5001096;28;20466;-74
2023/03/30 12:37:14;;;;;;;3.07;2.10;;;23.60;56.00;;;;;;5010048;28;20909;-72
2023/03/30 12:39:47;;;;;;;4.60;1.87;;;23.60;56.00;;;;;;5030042;28;20467;-73
2023/03/30 12:42:26;;;;;;;6.53;2.50;;;23.60;56.00;;;;;;5027791;28;20460;-73
2023/03/30 12:45:20;;;;;;;4.67;1.90;;;23.60;56.10;;;;;;5028554;28;20460;-73
2023/03/30 12:48:06;;;;;;;2.70;2.00;;;23.60;56.10;;;;;;5029534;28;20482;-74
2023/03/30 12:50:43;;;;;;;2.80;1.60;;;23.60;56.10;;;;;;5028542;28;20460;-75
2023/03/30 12:53:36;;;;;;;5.13;1.80;;;23.60;56.20;;;;;;5029101;28;20462;-76
2023/03/30 12:56:07;;;;;;;4.73;2.10;;;23.60;56.10;;;;;;5028491;28;20564;-74
2023/03/30 12:59:12;;;;;;;3.27;1.67;;;23.70;56.10;;;;;;5028995;28;20462;-75
2023/03/30 13:01:53;;;;;;;4.50;2.63;;;23.70;56.10;;;;;;5020390;28;20547;-74
2023/03/30 13:04:24;;;;;;;2.37;2.17;;;23.70;56.10;;;;;;5029232;28;20797;-75
2023/03/30 13:06:56;;;;;;;1.90;1.80;;;23.70;56.00;;;;;;5028243;28;20460;-72
2023/03/30 13:09:53;;;;;;;2.73;1.90;;;23.70;56.10;;;;;;5027462;28;20462;-76
2023/03/30 13:12:31;;;;;;;5.77;1.67;;;23.70;56.00;;;;;;5026672;28;20543;-73
2023/03/30 13:15:04;;;;;;;2.10;1.60;;;23.70;56.00;;;;;;5003297;28;20804;-74
2023/03/30 13:17:56;;;;;;;2.73;1.40;;;23.70;56.30;;;;;;5023799;28;20480;-74
2023/03/30 13:20:31;;;;;;;3.53;1.70;;;23.70;56.10;;;;;;5023795;28;20503;-73
2023/03/30 13:23:19;;;;;;;2.00;1.20;;;23.70;56.40;;;;;;5023659;28;20462;-72
2023/03/30 13:25:59;;;;;;;3.40;1.80;;;23.80;56.30;;;;;;5022666;28;20989;-73
2023/03/30 13:28:50;;;;;;;6.13;1.70;;;23.80;56.30;;;;;;5008684;28;20465;-73
2023/03/30 13:31:39;;;;;;;1.90;1.63;;;23.80;56.30;;;;;;5015841;28;20473;-74
2023/03/30 13:34:18;;;;;;;2.53;1.57;;;23.80;56.40;;;;;;5025324;28;20561;-75
2023/03/30 13:36:58;;;;;;;1.60;1.50;;;23.80;56.40;;;;;;5021416;28;20473;-74
2023/03/30 13:39:31;;;;;;;3.27;1.87;;;23.90;56.30;;;;;;5024895;28;20453;-76